sensor_id;sensor_type;location;lat;lon;timestamp;pressure;altitude;pressure_sealevel;temperature;humidity
60918;BME280;46792;38.854;-9.384;2023-01-27T09:39:56;99997.31;;;7.58;98.30
60918;BME280;46792;38.854;-9.384;2023-01-27T09:42:09;99989.59;;;7.62;96.73
60918;BME280;46792;38.854;-9.384;2023-01-27T09:44:26;100000.34;;;7.74;95.64
60918;BME280;46792;38.854;-9.384;2023-01-27T09:51:23;100013.66;;;7.93;93.72
60918;BME280;46792;38.854;-9.384;2023-01-27T10:06:30;100011.78;;;8.17;87.17
60918;BME280;46792;38.854;-9.384;2023-01-27T10:11:17;99999.19;;;8.34;87.64
60918;BME280;46792;38.854;-9.384;2023-01-27T10:13:46;100008.88;;;8.47;86.90
60918;BME280;46792;38.854;-9.384;2023-01-27T10:16:20;100006.66;;;8.56;88.06
60918;BME280;46792;38.854;-9.384;2023-01-27T10:18:54;100007.44;;;8.68;88.41
60918;BME280;46792;38.854;-9.384;2023-01-27T10:21:11;100003.66;;;8.81;87.81
60918;BME280;46792;38.854;-9.384;2023-01-27T10:27:58;100001.25;;;8.97;85.74
60918;BME280;46792;38.854;-9.384;2023-01-27T10:32:27;100003.63;;;9.10;85.77
60918;BME280;46792;38.854;-9.384;2023-01-27T10:34:36;100006.09;;;9.12;85.83
60918;BME280;46792;38.854;-9.384;2023-01-27T10:39:20;100010.84;;;9.22;86.52
60918;BME280;46792;38.854;-9.384;2023-01-27T10:41:55;100015.00;;;9.30;87.53
60918;BME280;46792;38.854;-9.384;2023-01-27T10:46:24;100011.75;;;9.27;88.10
60918;BME280;46792;38.854;-9.384;2023-01-27T10:48:38;100013.53;;;9.39;88.14
60918;BME280;46792;38.854;-9.384;2023-01-27T10:50:56;100016.22;;;9.39;86.02
60918;BME280;46792;38.854;-9.384;2023-01-27T10:53:11;100011.59;;;9.34;84.63
60918;BME280;46792;38.854;-9.384;2023-01-27T10:55:24;100005.19;;;9.40;85.56
60918;BME280;46792;38.854;-9.384;2023-01-27T10:57:32;100007.19;;;9.45;84.82
60918;BME280;46792;38.854;-9.384;2023-01-27T10:59:42;100013.22;;;9.52;85.45
60918;BME280;46792;38.854;-9.384;2023-01-27T11:01:55;100015.50;;;9.61;84.46
60918;BME280;46792;38.854;-9.384;2023-01-27T11:04:03;100016.78;;;9.58;83.60
60918;BME280;46792;38.854;-9.384;2023-01-27T11:06:21;100011.72;;;9.44;83.10
60918;BME280;46792;38.854;-9.384;2023-01-27T11:08:44;100014.19;;;9.63;86.69
60918;BME280;46792;38.854;-9.384;2023-01-27T11:10:48;100003.41;;;9.63;85.38
60918;BME280;46792;38.854;-9.384;2023-01-27T11:13:14;100012.97;;;9.71;85.04
60918;BME280;46792;38.854;-9.384;2023-01-27T11:15:32;100006.50;;;9.72;84.34
60918;BME280;46792;38.854;-9.384;2023-01-27T11:17:37;100008.59;;;9.87;85.25
60918;BME280;46792;38.854;-9.384;2023-01-27T11:19:54;100005.84;;;9.82;85.97
60918;BME280;46792;38.854;-9.384;2023-01-27T11:21:57;99996.69;;;9.83;84.47
60918;BME280;46792;38.854;-9.384;2023-01-27T11:24:10;99995.28;;;9.80;85.21
60918;BME280;46792;38.854;-9.384;2023-01-27T11:26:33;99996.25;;;9.91;85.70
60918;BME280;46792;38.854;-9.384;2023-01-27T11:33:08;99993.28;;;10.10;87.45
60918;BME280;46792;38.854;-9.384;2023-01-27T11:35:13;99998.06;;;10.25;87.22
60918;BME280;46792;38.854;-9.384;2023-01-27T11:37:21;99993.47;;;10.25;87.58
60918;BME280;46792;38.854;-9.384;2023-01-27T11:39:22;99992.97;;;10.28;87.57
60918;BME280;46792;38.854;-9.384;2023-01-27T11:41:23;99991.84;;;10.24;87.36
60918;BME280;46792;38.854;-9.384;2023-01-27T11:43:25;99995.09;;;10.26;87.16
60918;BME280;46792;38.854;-9.384;2023-01-27T11:45:34;99987.66;;;10.33;88.42
60918;BME280;46792;38.854;-9.384;2023-01-27T11:47:38;99974.28;;;10.44;88.79
60918;BME280;46792;38.854;-9.384;2023-01-27T11:49:43;99980.06;;;10.53;89.29
60918;BME280;46792;38.854;-9.384;2023-01-27T11:51:46;99968.50;;;10.57;87.14
60918;BME280;46792;38.854;-9.384;2023-01-27T11:54:14;99966.78;;;10.46;87.70
60918;BME280;46792;38.854;-9.384;2023-01-27T11:56:18;99967.94;;;10.55;87.63
60918;BME280;46792;38.854;-9.384;2023-01-27T11:58:33;99965.31;;;10.60;87.95
60918;BME280;46792;38.854;-9.384;2023-01-27T12:00:45;99970.88;;;10.76;88.02
60918;BME280;46792;38.854;-9.384;2023-01-27T12:02:51;99969.03;;;10.82;87.62
60918;BME280;46792;38.854;-9.384;2023-01-27T12:07:03;99956.88;;;10.84;87.70
60918;BME280;46792;38.854;-9.384;2023-01-27T12:09:31;99949.56;;;10.79;87.25
60918;BME280;46792;38.854;-9.384;2023-01-27T12:11:31;99940.94;;;10.83;87.55
60918;BME280;46792;38.854;-9.384;2023-01-27T12:13:32;99952.63;;;10.88;88.20
60918;BME280;46792;38.854;-9.384;2023-01-27T12:15:33;99941.59;;;10.95;88.33
60918;BME280;46792;38.854;-9.384;2023-01-27T12:19:39;99937.59;;;11.03;84.69
60918;BME280;46792;38.854;-9.384;2023-01-27T12:21:49;99937.25;;;10.94;83.59
60918;BME280;46792;38.854;-9.384;2023-01-27T12:23:52;99934.06;;;10.97;84.85
60918;BME280;46792;38.854;-9.384;2023-01-27T12:25:58;99940.28;;;10.98;83.78
60918;BME280;46792;38.854;-9.384;2023-01-27T12:28:01;99927.03;;;10.96;83.75
60918;BME280;46792;38.854;-9.384;2023-01-27T12:30:06;99922.53;;;11.07;83.47
60918;BME280;46792;38.854;-9.384;2023-01-27T12:32:16;99927.81;;;11.29;84.24
60918;BME280;46792;38.854;-9.384;2023-01-27T12:34:27;99927.03;;;11.34;81.72
60918;BME280;46792;38.854;-9.384;2023-01-27T12:36:41;99907.28;;;11.28;82.77
60918;BME280;46792;38.854;-9.384;2023-01-27T12:38:57;99924.44;;;11.49;81.04
60918;BME280;46792;38.854;-9.384;2023-01-27T12:41:26;99906.06;;;11.46;81.42
60918;BME280;46792;38.854;-9.384;2023-01-27T12:43:30;99903.31;;;11.41;78.48
60918;BME280;46792;38.854;-9.384;2023-01-27T12:45:32;99910.06;;;11.38;77.72
60918;BME280;46792;38.854;-9.384;2023-01-27T12:47:37;99910.38;;;11.47;77.74
60918;BME280;46792;38.854;-9.384;2023-01-27T12:49:38;99910.97;;;11.54;75.37
60918;BME280;46792;38.854;-9.384;2023-01-27T12:51:40;99893.56;;;11.40;76.10
60918;BME280;46792;38.854;-9.384;2023-01-27T12:53:44;99900.56;;;11.31;74.52
60918;BME280;46792;38.854;-9.384;2023-01-27T12:55:59;99905.09;;;11.25;75.27
60918;BME280;46792;38.854;-9.384;2023-01-27T12:58:01;99902.66;;;11.23;75.73
60918;BME280;46792;38.854;-9.384;2023-01-27T13:00:02;99907.78;;;11.25;75.97
60918;BME280;46792;38.854;-9.384;2023-01-27T13:02:19;99889.41;;;11.22;76.78
60918;BME280;46792;38.854;-9.384;2023-01-27T13:04:22;99887.50;;;11.22;75.00
60918;BME280;46792;38.854;-9.384;2023-01-27T13:06:37;99887.69;;;11.10;76.85
60918;BME280;46792;38.854;-9.384;2023-01-27T13:09:00;99880.75;;;11.20;77.14
60918;BME280;46792;38.854;-9.384;2023-01-27T13:11:32;99869.66;;;11.21;78.06
60918;BME280;46792;38.854;-9.384;2023-01-27T13:13:34;99864.88;;;11.34;80.15
60918;BME280;46792;38.854;-9.384;2023-01-27T13:15:34;99874.69;;;11.45;77.84
60918;BME280;46792;38.854;-9.384;2023-01-27T13:17:44;99856.59;;;11.51;79.64
60918;BME280;46792;38.854;-9.384;2023-01-27T13:19:49;99868.53;;;11.60;78.91
60918;BME280;46792;38.854;-9.384;2023-01-27T13:21:52;99868.28;;;11.62;80.72
60918;BME280;46792;38.854;-9.384;2023-01-27T13:23:54;99855.25;;;11.53;80.89
60918;BME280;46792;38.854;-9.384;2023-01-27T13:26:09;99871.84;;;11.67;82.22
60918;BME280;46792;38.854;-9.384;2023-01-27T13:28:13;99868.28;;;11.62;82.43
60918;BME280;46792;38.854;-9.384;2023-01-27T13:30:24;99856.84;;;11.49;81.63
60918;BME280;46792;38.854;-9.384;2023-01-27T13:32:31;99865.94;;;11.33;82.60
60918;BME280;46792;38.854;-9.384;2023-01-27T13:34:57;99867.66;;;11.44;84.16
60918;BME280;46792;38.854;-9.384;2023-01-27T13:37:16;99865.50;;;11.46;83.42
60918;BME280;46792;38.854;-9.384;2023-01-27T13:39:20;99861.69;;;11.47;83.28
60918;BME280;46792;38.854;-9.384;2023-01-27T13:41:33;99864.97;;;11.49;84.32
60918;BME280;46792;38.854;-9.384;2023-01-27T13:43:38;99853.22;;;11.23;83.69
60918;BME280;46792;38.854;-9.384;2023-01-27T13:45:45;99849.63;;;11.12;86.04
60918;BME280;46792;38.854;-9.384;2023-01-27T13:47:57;99851.31;;;11.23;84.86
60918;BME280;46792;38.854;-9.384;2023-01-27T13:50:01;99852.94;;;11.24;82.42
60918;BME280;46792;38.854;-9.384;2023-01-27T13:52:05;99862.63;;;11.20;81.64
60918;BME280;46792;38.854;-9.384;2023-01-27T13:54:08;99847.81;;;11.23;81.47
60918;BME280;46792;38.854;-9.384;2023-01-27T13:59:29;99846.00;;;11.39;76.68
60918;BME280;46792;38.854;-9.384;2023-01-27T14:08:48;99831.75;;;11.59;79.28
60918;BME280;46792;38.854;-9.384;2023-01-27T14:15:35;99818.47;;;11.52;76.22
60918;BME280;46792;38.854;-9.384;2023-01-27T14:24:44;99811.97;;;11.43;74.82
60918;BME280;46792;38.854;-9.384;2023-01-27T14:26:49;99813.72;;;11.17;76.73
60918;BME280;46792;38.854;-9.384;2023-01-27T14:29:20;99800.00;;;11.29;78.15
60918;BME280;46792;38.854;-9.384;2023-01-27T14:31:36;99800.63;;;11.46;77.17
60918;BME280;46792;38.854;-9.384;2023-01-27T14:35:59;99799.59;;;11.57;75.47
60918;BME280;46792;38.854;-9.384;2023-01-27T14:38:24;99796.06;;;11.57;74.76
60918;BME280;46792;38.854;-9.384;2023-01-27T14:40:36;99800.66;;;11.56;73.78
60918;BME280;46792;38.854;-9.384;2023-01-27T14:45:20;99794.50;;;11.66;73.70
60918;BME280;46792;38.854;-9.384;2023-01-27T14:58:56;99807.00;;;10.82;79.93
60918;BME280;46792;38.854;-9.384;2023-01-27T15:01:05;99799.81;;;10.98;82.57
60918;BME280;46792;38.854;-9.384;2023-01-27T15:24:35;99800.97;;;11.65;78.13
60918;BME280;46792;38.854;-9.384;2023-01-27T15:26:45;99801.41;;;11.36;78.63
60918;BME280;46792;38.854;-9.384;2023-01-27T15:28:47;99794.13;;;11.42;78.41
60918;BME280;46792;38.854;-9.384;2023-01-27T15:31:08;99796.03;;;11.47;76.19
60918;BME280;46792;38.854;-9.384;2023-01-27T15:35:47;99803.84;;;11.43;75.54
60918;BME280;46792;38.854;-9.384;2023-01-27T15:37:59;99811.38;;;11.36;76.17
60918;BME280;46792;38.854;-9.384;2023-01-27T15:44:31;99808.78;;;11.08;78.50
60918;BME280;46792;38.854;-9.384;2023-01-27T15:46:34;99817.44;;;11.05;76.83
60918;BME280;46792;38.854;-9.384;2023-01-27T15:48:37;99807.88;;;10.92;76.86
60918;BME280;46792;38.854;-9.384;2023-01-27T15:50:45;99808.91;;;10.86;77.68
60918;BME280;46792;38.854;-9.384;2023-01-27T15:52:47;99799.50;;;10.89;77.94
60918;BME280;46792;38.854;-9.384;2023-01-27T15:54:50;99812.16;;;10.88;78.02
60918;BME280;46792;38.854;-9.384;2023-01-27T15:56:53;99801.06;;;10.85;78.42
60918;BME280;46792;38.854;-9.384;2023-01-27T15:58:56;99806.94;;;10.71;77.97
60918;BME280;46792;38.854;-9.384;2023-01-27T16:00:59;99804.25;;;10.76;78.95
60918;BME280;46792;38.854;-9.384;2023-01-27T16:03:03;99808.16;;;10.91;79.37
60918;BME280;46792;38.854;-9.384;2023-01-27T16:05:14;99798.16;;;10.91;78.46
60918;BME280;46792;38.854;-9.384;2023-01-27T16:07:31;99803.81;;;10.90;77.57
60918;BME280;46792;38.854;-9.384;2023-01-27T16:09:46;99796.25;;;10.92;77.27
60918;BME280;46792;38.854;-9.384;2023-01-27T16:14:36;99812.94;;;10.84;77.80
60918;BME280;46792;38.854;-9.384;2023-01-27T16:17:01;99796.22;;;10.87;78.72
60918;BME280;46792;38.854;-9.384;2023-01-27T16:19:17;99803.50;;;10.86;77.47
60918;BME280;46792;38.854;-9.384;2023-01-27T16:23:50;99801.66;;;10.92;78.29
60918;BME280;46792;38.854;-9.384;2023-01-27T16:26:38;99799.66;;;10.77;77.72
60918;BME280;46792;38.854;-9.384;2023-01-27T16:28:23;99793.97;;;10.73;77.06
60918;BME280;46792;38.854;-9.384;2023-01-27T16:30:30;99800.47;;;10.77;77.57
60918;BME280;46792;38.854;-9.384;2023-01-27T16:32:38;99800.47;;;10.77;77.44
60918;BME280;46792;38.854;-9.384;2023-01-27T16:35:00;99809.88;;;10.70;77.81
60918;BME280;46792;38.854;-9.384;2023-01-27T16:37:13;99801.44;;;10.61;78.60
60918;BME280;46792;38.854;-9.384;2023-01-27T16:41:32;99790.56;;;10.50;78.95
60918;BME280;46792;38.854;-9.384;2023-01-27T16:43:42;99794.88;;;10.52;78.14
60918;BME280;46792;38.854;-9.384;2023-01-27T16:45:46;99796.16;;;10.44;78.76
60918;BME280;46792;38.854;-9.384;2023-01-27T16:47:55;99802.34;;;10.39;79.04
60918;BME280;46792;38.854;-9.384;2023-01-27T16:49:57;99816.63;;;10.40;79.88
60918;BME280;46792;38.854;-9.384;2023-01-27T16:52:03;99810.56;;;10.27;80.16
60918;BME280;46792;38.854;-9.384;2023-01-27T16:54:23;99808.72;;;10.33;80.83
60918;BME280;46792;38.854;-9.384;2023-01-27T16:56:32;99812.25;;;10.33;81.28
60918;BME280;46792;38.854;-9.384;2023-01-27T16:58:34;99817.66;;;10.33;81.47
60918;BME280;46792;38.854;-9.384;2023-01-27T17:00:35;99815.44;;;10.30;82.11
60918;BME280;46792;38.854;-9.384;2023-01-27T17:02:36;99808.88;;;10.21;82.61
60918;BME280;46792;38.854;-9.384;2023-01-27T17:04:36;99817.78;;;10.22;82.56
60918;BME280;46792;38.854;-9.384;2023-01-27T17:06:37;99812.28;;;10.11;83.02
60918;BME280;46792;38.854;-9.384;2023-01-27T17:08:47;99815.25;;;10.10;83.23
60918;BME280;46792;38.854;-9.384;2023-01-27T17:10:57;99820.28;;;10.01;83.60
60918;BME280;46792;38.854;-9.384;2023-01-27T17:13:03;99805.91;;;9.95;84.33
60918;BME280;46792;38.854;-9.384;2023-01-27T17:15:18;99826.38;;;9.91;84.59
60918;BME280;46792;38.854;-9.384;2023-01-27T17:17:20;99822.31;;;9.88;84.71
60918;BME280;46792;38.854;-9.384;2023-01-27T17:19:31;99829.53;;;9.83;85.31
60918;BME280;46792;38.854;-9.384;2023-01-27T17:21:37;99830.00;;;9.80;85.45
60918;BME280;46792;38.854;-9.384;2023-01-27T17:23:39;99830.44;;;9.71;85.58
60918;BME280;46792;38.854;-9.384;2023-01-27T17:25:40;99842.75;;;9.62;86.02
60918;BME280;46792;38.854;-9.384;2023-01-27T17:27:41;99838.66;;;9.59;85.67
60918;BME280;46792;38.854;-9.384;2023-01-27T17:29:44;99839.41;;;9.55;86.12
60918;BME280;46792;38.854;-9.384;2023-01-27T17:31:46;99830.38;;;9.44;86.77
60918;BME280;46792;38.854;-9.384;2023-01-27T17:33:48;99834.53;;;9.52;86.27
60918;BME280;46792;38.854;-9.384;2023-01-27T17:35:54;99837.22;;;9.52;86.54
60918;BME280;46792;38.854;-9.384;2023-01-27T17:38:16;99842.22;;;9.43;86.93
60918;BME280;46792;38.854;-9.384;2023-01-27T17:40:21;99840.44;;;9.32;87.60
60918;BME280;46792;38.854;-9.384;2023-01-27T17:42:24;99845.50;;;9.28;87.97
60918;BME280;46792;38.854;-9.384;2023-01-27T17:44:31;99839.81;;;9.24;88.27
60918;BME280;46792;38.854;-9.384;2023-01-27T17:46:32;99839.72;;;9.19;88.00
60918;BME280;46792;38.854;-9.384;2023-01-27T17:49:20;99838.94;;;9.19;88.03
60918;BME280;46792;38.854;-9.384;2023-01-27T17:51:42;99839.41;;;9.16;88.41
60918;BME280;46792;38.854;-9.384;2023-01-27T17:53:46;99840.66;;;9.08;88.70
60918;BME280;46792;38.854;-9.384;2023-01-27T17:55:46;99838.13;;;9.01;89.06
60918;BME280;46792;38.854;-9.384;2023-01-27T17:57:53;99836.72;;;8.98;88.78
60918;BME280;46792;38.854;-9.384;2023-01-27T18:00:42;99842.94;;;8.99;88.72
60918;BME280;46792;38.854;-9.384;2023-01-27T18:02:53;99835.34;;;8.96;88.58
60918;BME280;46792;38.854;-9.384;2023-01-27T18:05:05;99843.19;;;8.97;88.45
60918;BME280;46792;38.854;-9.384;2023-01-27T18:07:13;99840.66;;;8.91;88.47
60918;BME280;46792;38.854;-9.384;2023-01-27T18:09:24;99843.91;;;8.93;88.39
60918;BME280;46792;38.854;-9.384;2023-01-27T18:11:56;99835.25;;;8.91;88.25
60918;BME280;46792;38.854;-9.384;2023-01-27T18:14:16;99842.44;;;8.85;88.10
60918;BME280;46792;38.854;-9.384;2023-01-27T18:16:20;99841.22;;;8.93;87.60
60918;BME280;46792;38.854;-9.384;2023-01-27T18:18:28;99841.66;;;8.85;87.75
60918;BME280;46792;38.854;-9.384;2023-01-27T18:21:02;99848.00;;;8.78;87.92
60918;BME280;46792;38.854;-9.384;2023-01-27T18:23:26;99857.38;;;8.76;88.08
60918;BME280;46792;38.854;-9.384;2023-01-27T18:25:30;99853.38;;;8.78;87.73
60918;BME280;46792;38.854;-9.384;2023-01-27T18:27:34;99851.25;;;8.80;87.73
60918;BME280;46792;38.854;-9.384;2023-01-27T18:29:37;99866.25;;;8.76;87.62
60918;BME280;46792;38.854;-9.384;2023-01-27T18:31:53;99869.22;;;8.75;87.76
60918;BME280;46792;38.854;-9.384;2023-01-27T18:36:18;99877.97;;;8.82;87.18
60918;BME280;46792;38.854;-9.384;2023-01-27T18:38:24;99873.22;;;8.72;87.33
60918;BME280;46792;38.854;-9.384;2023-01-27T18:40:47;99872.06;;;8.68;87.77
60918;BME280;46792;38.854;-9.384;2023-01-27T18:42:52;99876.38;;;8.69;87.58
60918;BME280;46792;38.854;-9.384;2023-01-27T18:44:52;99870.34;;;8.62;87.71
60918;BME280;46792;38.854;-9.384;2023-01-27T18:49:17;99866.25;;;8.59;87.59
60918;BME280;46792;38.854;-9.384;2023-01-27T18:51:17;99866.53;;;8.58;87.53
60918;BME280;46792;38.854;-9.384;2023-01-27T18:53:19;99876.28;;;8.64;87.50
60918;BME280;46792;38.854;-9.384;2023-01-27T18:55:27;99877.81;;;8.60;87.64
60918;BME280;46792;38.854;-9.384;2023-01-27T18:57:28;99868.06;;;8.54;87.31
60918;BME280;46792;38.854;-9.384;2023-01-27T18:59:29;99873.66;;;8.52;87.89
60918;BME280;46792;38.854;-9.384;2023-01-27T19:01:30;99881.72;;;8.52;87.77
60918;BME280;46792;38.854;-9.384;2023-01-27T19:03:49;99869.69;;;8.55;87.88
60918;BME280;46792;38.854;-9.384;2023-01-27T19:05:52;99879.63;;;8.54;87.85
60918;BME280;46792;38.854;-9.384;2023-01-27T19:07:53;99882.44;;;8.47;88.27
60918;BME280;46792;38.854;-9.384;2023-01-27T19:09:53;99878.72;;;8.48;88.16
60918;BME280;46792;38.854;-9.384;2023-01-27T19:11:56;99872.38;;;8.55;87.80
60918;BME280;46792;38.854;-9.384;2023-01-27T19:13:57;99873.19;;;8.55;87.79
60918;BME280;46792;38.854;-9.384;2023-01-27T19:16:01;99885.91;;;8.60;87.76
60918;BME280;46792;38.854;-9.384;2023-01-27T19:18:11;99883.94;;;8.55;87.89
60918;BME280;46792;38.854;-9.384;2023-01-27T19:20:20;99892.16;;;8.48;88.26
60918;BME280;46792;38.854;-9.384;2023-01-27T19:22:21;99893.59;;;8.39;88.49
60918;BME280;46792;38.854;-9.384;2023-01-27T19:24:26;99901.56;;;8.34;88.91
60918;BME280;46792;38.854;-9.384;2023-01-27T19:26:45;99897.72;;;8.30;89.04
60918;BME280;46792;38.854;-9.384;2023-01-27T19:28:51;99894.78;;;8.31;89.21
60918;BME280;46792;38.854;-9.384;2023-01-27T19:30:53;99906.03;;;8.28;89.37
60918;BME280;46792;38.854;-9.384;2023-01-27T19:32:54;99906.06;;;8.16;90.22
60918;BME280;46792;38.854;-9.384;2023-01-27T19:34:55;99907.22;;;8.20;90.24
60918;BME280;46792;38.854;-9.384;2023-01-27T19:36:56;99912.59;;;8.20;90.13
60918;BME280;46792;38.854;-9.384;2023-01-27T19:39:12;99912.59;;;8.20;90.27
60918;BME280;46792;38.854;-9.384;2023-01-27T19:41:13;99914.25;;;8.21;90.48
60918;BME280;46792;38.854;-9.384;2023-01-27T19:43:14;99909.19;;;8.25;90.22
60918;BME280;46792;38.854;-9.384;2023-01-27T19:45:16;99908.72;;;8.28;90.27
60918;BME280;46792;38.854;-9.384;2023-01-27T19:47:17;99909.03;;;8.32;90.04
60918;BME280;46792;38.854;-9.384;2023-01-27T19:49:18;99908.19;;;8.43;89.52
60918;BME280;46792;38.854;-9.384;2023-01-27T19:51:37;99906.91;;;8.46;89.38
60918;BME280;46792;38.854;-9.384;2023-01-27T19:53:38;99899.78;;;8.40;89.38
60918;BME280;46792;38.854;-9.384;2023-01-27T19:55:39;99907.84;;;8.40;89.27
60918;BME280;46792;38.854;-9.384;2023-01-27T19:57:41;99911.84;;;8.37;89.50
60918;BME280;46792;38.854;-9.384;2023-01-27T19:59:42;99915.72;;;8.29;90.03
60918;BME280;46792;38.854;-9.384;2023-01-27T20:01:46;99914.09;;;8.28;90.09
60918;BME280;46792;38.854;-9.384;2023-01-27T20:03:49;99911.16;;;8.30;90.29
60918;BME280;46792;38.854;-9.384;2023-01-27T20:05:49;99912.72;;;8.26;90.33
60918;BME280;46792;38.854;-9.384;2023-01-27T20:08:17;99916.53;;;8.30;90.19
60918;BME280;46792;38.854;-9.384;2023-01-27T20:10:36;99923.22;;;8.27;90.29
60918;BME280;46792;38.854;-9.384;2023-01-27T20:15:16;99922.78;;;8.18;90.63
60918;BME280;46792;38.854;-9.384;2023-01-27T20:17:17;99921.97;;;8.18;90.75
60918;BME280;46792;38.854;-9.384;2023-01-27T20:19:39;99915.50;;;8.19;90.71
60918;BME280;46792;38.854;-9.384;2023-01-27T20:21:41;99916.16;;;8.09;91.28
60918;BME280;46792;38.854;-9.384;2023-01-27T20:24:00;99922.66;;;8.13;91.81
60918;BME280;46792;38.854;-9.384;2023-01-27T20:26:20;99923.84;;;8.17;91.17
60918;BME280;46792;38.854;-9.384;2023-01-27T20:28:20;99929.53;;;8.21;91.03
60918;BME280;46792;38.854;-9.384;2023-01-27T20:30:27;99933.78;;;8.17;91.57
60918;BME280;46792;38.854;-9.384;2023-01-27T20:32:28;99930.38;;;8.21;91.66
60918;BME280;46792;38.854;-9.384;2023-01-27T20:34:28;99936.69;;;8.15;91.57
60918;BME280;46792;38.854;-9.384;2023-01-27T20:36:29;99931.00;;;8.12;92.01
60918;BME280;46792;38.854;-9.384;2023-01-27T20:38:30;99933.81;;;8.05;92.12
60918;BME280;46792;38.854;-9.384;2023-01-27T20:40:30;99929.22;;;8.05;92.19
60918;BME280;46792;38.854;-9.384;2023-01-27T20:42:31;99932.28;;;8.09;92.04
60918;BME280;46792;38.854;-9.384;2023-01-27T20:44:31;99933.81;;;8.05;91.89
60918;BME280;46792;38.854;-9.384;2023-01-27T20:46:47;99940.25;;;8.04;91.59
60918;BME280;46792;38.854;-9.384;2023-01-27T20:56:24;99949.69;;;8.06;89.30
60918;BME280;46792;38.854;-9.384;2023-01-27T20:58:28;99948.88;;;8.06;88.79
60918;BME280;46792;38.854;-9.384;2023-01-27T21:00:47;99953.22;;;8.07;88.62
60918;BME280;46792;38.854;-9.384;2023-01-27T21:03:06;99958.47;;;8.02;88.07
60918;BME280;46792;38.854;-9.384;2023-01-27T21:05:07;99953.22;;;7.95;87.86
60918;BME280;46792;38.854;-9.384;2023-01-27T21:07:08;99956.84;;;8.01;87.80
60918;BME280;46792;38.854;-9.384;2023-01-27T21:09:09;99965.38;;;7.98;87.31
60918;BME280;46792;38.854;-9.384;2023-01-27T21:11:10;99952.41;;;7.95;87.21
60918;BME280;46792;38.854;-9.384;2023-01-27T21:13:12;99940.03;;;7.82;86.59
60918;BME280;46792;38.854;-9.384;2023-01-27T21:17:35;99954.16;;;7.89;86.67
60918;BME280;46792;38.854;-9.384;2023-01-27T21:19:35;99964.22;;;7.82;86.51
60918;BME280;46792;38.854;-9.384;2023-01-27T21:21:36;99965.75;;;7.78;86.54
60918;BME280;46792;38.854;-9.384;2023-01-27T21:23:37;99955.72;;;7.73;86.42
60918;BME280;46792;38.854;-9.384;2023-01-27T21:25:38;99959.31;;;7.79;86.08
60918;BME280;46792;38.854;-9.384;2023-01-27T21:30:17;99967.38;;;7.79;85.35
60918;BME280;46792;38.854;-9.384;2023-01-27T21:32:17;99961.31;;;7.83;85.32
60918;BME280;46792;38.854;-9.384;2023-01-27T21:34:18;99966.94;;;7.82;84.92
60918;BME280;46792;38.854;-9.384;2023-01-27T21:36:38;99962.13;;;7.84;84.76
60918;BME280;46792;38.854;-9.384;2023-01-27T21:38:58;99963.41;;;7.81;84.55
60918;BME280;46792;38.854;-9.384;2023-01-27T21:41:13;99962.59;;;7.81;84.24
60918;BME280;46792;38.854;-9.384;2023-01-27T21:43:34;99958.03;;;7.81;83.90
60918;BME280;46792;38.854;-9.384;2023-01-27T21:46:09;99935.13;;;7.79;83.48
60918;BME280;46792;38.854;-9.384;2023-01-27T21:48:09;99947.66;;;7.85;83.05
60918;BME280;46792;38.854;-9.384;2023-01-27T21:50:10;99945.41;;;7.82;82.69
60918;BME280;46792;38.854;-9.384;2023-01-27T21:52:11;99944.00;;;7.79;82.35
60918;BME280;46792;38.854;-9.384;2023-01-27T21:54:11;99945.06;;;7.78;82.15
60918;BME280;46792;38.854;-9.384;2023-01-27T21:56:30;99951.38;;;7.84;81.57
60918;BME280;46792;38.854;-9.384;2023-01-27T21:58:31;99950.09;;;7.86;81.71
60918;BME280;46792;38.854;-9.384;2023-01-27T22:00:32;99951.38;;;7.84;81.34
60918;BME280;46792;38.854;-9.384;2023-01-27T22:02:33;99951.97;;;7.86;81.34
60918;BME280;46792;38.854;-9.384;2023-01-27T22:04:34;99946.22;;;7.82;80.63
60918;BME280;46792;38.854;-9.384;2023-01-27T22:06:35;99958.03;;;7.81;80.65
60918;BME280;46792;38.854;-9.384;2023-01-27T22:08:36;99962.59;;;7.81;80.19
60918;BME280;46792;38.854;-9.384;2023-01-27T22:10:36;99960.13;;;7.79;80.08
60918;BME280;46792;38.854;-9.384;2023-01-27T22:12:37;99955.00;;;7.78;79.97
60918;BME280;46792;38.854;-9.384;2023-01-27T22:14:38;99967.25;;;7.73;79.87
60918;BME280;46792;38.854;-9.384;2023-01-27T22:16:38;99957.56;;;7.72;79.64
60918;BME280;46792;38.854;-9.384;2023-01-27T22:18:39;99959.91;;;7.69;79.15
60918;BME280;46792;38.854;-9.384;2023-01-27T22:20:40;99958.16;;;7.63;79.14
60918;BME280;46792;38.854;-9.384;2023-01-27T22:22:41;99957.47;;;7.67;78.59
60918;BME280;46792;38.854;-9.384;2023-01-27T22:24:43;99962.72;;;7.74;77.90
60918;BME280;46792;38.854;-9.384;2023-01-27T22:26:43;99949.41;;;7.67;77.63
60918;BME280;46792;38.854;-9.384;2023-01-27T22:28:44;99957.81;;;7.71;77.55
60918;BME280;46792;38.854;-9.384;2023-01-27T22:30:51;99954.88;;;7.72;77.04
60918;BME280;46792;38.854;-9.384;2023-01-27T22:32:51;99944.25;;;7.78;76.86
60918;BME280;46792;38.854;-9.384;2023-01-27T22:34:52;99960.97;;;7.80;76.25
60918;BME280;46792;38.854;-9.384;2023-01-27T22:36:53;99944.84;;;7.80;76.25
60918;BME280;46792;38.854;-9.384;2023-01-27T22:38:53;99952.56;;;7.76;76.43
60918;BME280;46792;38.854;-9.384;2023-01-27T22:40:55;99952.31;;;7.78;76.34
60918;BME280;46792;38.854;-9.384;2023-01-27T22:42:57;99955.00;;;7.78;76.07
60918;BME280;46792;38.854;-9.384;2023-01-27T22:44:57;99959.06;;;7.80;76.10
60918;BME280;46792;38.854;-9.384;2023-01-27T22:46:58;99950.91;;;7.75;76.28
60918;BME280;46792;38.854;-9.384;2023-01-27T22:48:58;99958.28;;;7.80;76.12
60918;BME280;46792;38.854;-9.384;2023-01-27T22:51:03;99962.25;;;7.77;76.49
60918;BME280;46792;38.854;-9.384;2023-01-27T22:53:04;99966.56;;;7.78;76.34
60918;BME280;46792;38.854;-9.384;2023-01-27T22:55:09;99960.03;;;7.74;76.48
60918;BME280;46792;38.854;-9.384;2023-01-27T22:57:10;99958.63;;;7.71;76.39
60918;BME280;46792;38.854;-9.384;2023-01-27T22:59:11;99962.13;;;7.72;76.80
60918;BME280;46792;38.854;-9.384;2023-01-27T23:01:14;99961.22;;;7.66;76.81
60918;BME280;46792;38.854;-9.384;2023-01-27T23:03:15;99964.59;;;7.61;76.84
60918;BME280;46792;38.854;-9.384;2023-01-27T23:05:16;99961.53;;;7.58;77.06
60918;BME280;46792;38.854;-9.384;2023-01-27T23:07:17;99965.53;;;7.55;77.11